• Join FlightAware (Why Join?)
  • Login
  • US Flag 
07:11PM EDT


 

Airport Tracker/Info


-or-


 

Live Flight TrackerFlight Track Log ✈ ERR781 ✈ 11-Jul-2013 ✈ PASC / SCC - PAFA / FAI

Flight Track Log - Related Links

Times and Time Zones

All times are in EDT time to prevent confusion due to time zone crossing. See the ERR781 flight status page for this flight to view local times or setup timezone preferences in your user account.

Time Position Orientation Groundspeed Altitude Reporting Facility
EDT Latitude Longitude Course Direction KTS MPH feet Rate Location/Type
05:24PM 70.1167 -148.4167 180° South 180 207 3,400  Level Anchorage Center
05:25PM 70.0667 -148.4167 180° South 180 207 4,900 1,500 Climbing Anchorage Center
05:26PM 70.0167 -148.4167 180° South 180 207 6,500 1,500 Climbing Anchorage Center
05:27PM 69.9667 -148.4167 180° South 200 230 8,000 1,440 Climbing Anchorage Center
05:28PM 69.9167 -148.4167 180° South 190 219 9,500 1,440 Climbing Anchorage Center
05:29PM 69.8752 -148.4167 180° South  Level FlightAware Approximate
05:29PM 69.8667 -148.4167 180° South 200 230 10,900  Level Anchorage Center
05:30PM 69.8101 -148.4167 180° South  Level FlightAware Approximate
05:30PM 69.8000 -148.4167 180° South 190 219 12,300  Level Anchorage Center
05:31PM 69.7500 -148.4167 180° South 200 230 13,500 1,200 Climbing Anchorage Center
05:32PM 69.7000 -148.4167 180° South 200 230 14,700 1,140 Climbing Anchorage Center
05:33PM 69.6333 -148.4167 180° South 200 230 15,800 1,080 Climbing Anchorage Center
05:34PM 69.5833 -148.4167 180° South 210 242 16,900 960 Climbing Anchorage Center
05:35PM 69.5167 -148.4167 180° South 210 242 17,800 660 Climbing Anchorage Center
05:36PM 69.4667 -148.4167 180° South 210 242 18,300 660 Climbing Anchorage Center
05:37PM 69.4000 -148.4167 180° South 210 242 19,200 840 Climbing Anchorage Center
05:38PM 69.3500 -148.4333 187° South 200 230 20,000 780 Climbing Anchorage Center
05:40PM 69.2730 -148.4333 180° South  Level FlightAware Approximate
05:40PM 69.2333 -148.4167 180° South 200 230 21,700  Level Anchorage Center
05:41PM 69.1833 -148.4333 187° South 210 242 22,500 600 Climbing Anchorage Center
05:42PM 69.1167 -148.4333 180° South 200 230 23,000 240 Climbing Anchorage Center
05:43PM 69.0500 -148.4333 180° South 240 276 23,000  Level Anchorage Center
05:44PM 68.9833 -148.4333 180° South 250 288 23,000  Level Anchorage Center
05:45PM 68.9167 -148.4333 180° South 260 299 23,000  Level Anchorage Center
05:46PM 68.8500 -148.4333 180° South 240 276 23,000  Level Anchorage Center
05:47PM 68.7833 -148.4333 180° South 260 299 23,000  Level Anchorage Center
05:48PM 68.7167 -148.4333 180° South 250 288 23,000  Level Anchorage Center
05:49PM 68.6333 -148.4333 180° South 250 288 23,000  Level Anchorage Center
05:50PM 68.5667 -148.4500 185° South 250 288 23,000  Level Anchorage Center
05:51PM 68.5000 -148.4500 180° South 250 288 23,000  Level Anchorage Center
05:52PM 68.4333 -148.4500 180° South 250 288 23,000  Level Anchorage Center
05:53PM 68.3667 -148.4500 180° South 250 288 23,000  Level Anchorage Center
05:54PM 68.3000 -148.4500 180° South 250 288 23,000  Level Anchorage Center
05:55PM 68.2167 -148.4500 180° South 250 288 23,000  Level Anchorage Center
05:56PM 68.1500 -148.4500 180° South 260 299 23,000  Level Anchorage Center
05:57PM 68.0833 -148.4500 180° South 250 288 23,000  Level Anchorage Center
05:58PM 68.0000 -148.4500 180° South 260 299 23,000  Level Anchorage Center
05:59PM 67.9333 -148.4500 180° South 260 299 23,000  Level Anchorage Center
06:00PM 67.8667 -148.4500 180° South 260 299 23,000  Level Anchorage Center
06:01PM 67.7833 -148.4667 184° South 250 288 23,000  Level Anchorage Center
06:02PM 67.7167 -148.4667 180° South 250 288 23,000  Level Anchorage Center
06:03PM 67.6500 -148.4500 175° South 270 311 23,000  Level Anchorage Center
06:04PM 67.5667 -148.4667 184° South 270 311 23,000  Level Anchorage Center
06:05PM 67.5000 -148.4667 180° South 250 288 23,000  Level Anchorage Center
06:06PM 67.4333 -148.4500 175° South 260 299 23,000  Level Anchorage Center
06:07PM 67.3500 -148.4333 176° South 290 334 23,000  Level Anchorage Center
06:08PM 67.2833 -148.4167 174° South 260 299 23,000  Level Anchorage Center
06:09PM 67.2167 -148.4000 174° South 260 299 23,000  Level Anchorage Center
06:11PM 67.1333 -148.4000 180° South 280 322 23,000  Level Anchorage Center
06:12PM 67.0500 -148.3833 176° South 270 311 23,000  Level Anchorage Center
06:13PM 66.9667 -148.3667 176° South 270 311 23,000  Level Anchorage Center
06:14PM 66.9000 -148.3500 174° South 270 311 23,000  Level Anchorage Center
06:15PM 66.8167 -148.3333 175° South 280 322 23,000  Level Anchorage Center
06:16PM 66.7333 -148.3333 180° South 260 299 23,000  Level Anchorage Center
06:17PM 66.6667 -148.3167 174° South 280 322 23,000  Level Anchorage Center
06:18PM 66.5833 -148.3000 175° South 280 322 23,000  Level Anchorage Center
06:19PM 66.5167 -148.2833 174° South 270 311 23,000  Level Anchorage Center
06:20PM 66.4333 -148.2667 175° South 280 322 23,000  Level Anchorage Center
06:21PM 66.3667 -148.2500 174° South 270 311 23,000  Level Anchorage Center
06:22PM 66.3000 -148.2333 174° South 280 322 23,000 -360 Level Anchorage Center
06:23PM 66.2000 -148.2333 180° South 270 311 22,300 -900 Descending Anchorage Center
06:24PM 66.1500 -148.2333 180° South 280 322 21,200 -1,260 Descending Anchorage Center
06:25PM 66.0333 -148.2000 173° South 290 334 19,800 -1,260 Descending Anchorage Center
06:26PM 65.9500 -148.1833 175° South 300 345 18,700 -1,200 Descending Anchorage Center
06:27PM 65.8667 -148.1667 175° South 300 345 17,500 -1,260 Descending Anchorage Center
06:28PM 65.7833 -148.1667 180° South 300 345 16,200 -1,320 Descending Anchorage Center
06:29PM 65.7000 -148.1500 175° South 290 334 14,900 -1,440 Descending Anchorage Center
06:30PM 65.6333 -148.1333 174° South 290 334 13,400 -1,500 Descending Anchorage Center
06:31PM 65.5500 -148.1167 175° South 280 322 12,000 -1,440 Descending Anchorage Center
06:32PM 65.4667 -148.1000 175° South 280 322 10,500 -1,500 Descending Anchorage Center
06:34PM 65.3425 -148.0845 177° South  Level FlightAware Approximate
06:41PM 64.8812 -148.0167 180° South  Level FlightAware Approximate
06:42PM 64.8155 -148.0039 174° South  Level FlightAware Approximate
06:43PM 64.8000 -147.8814 90° East  Level FlightAware Approximate
06:44PM 64.8000 -147.8500 90° East  Level FlightAware Approximate
06:45PM 64.8151 -147.8564 90° East  Level Estimated
06:46PM 64.8151 -147.8564 90° East  Level Estimated
06:47PM 64.8151 -147.8564 90° East  Level Estimated
06:48PM 64.8151 -147.8564 90° East  Level Estimated
06:49PM 64.8151 -147.8564 90° East  Level Estimated
06:50PM 64.8151 -147.8564 90° East  Level Estimated
06:51PM 64.8151 -147.8564 90° East  Level Estimated
06:52PM 64.8151 -147.8564 90° East  Level Estimated
06:53PM 64.8151 -147.8564 90° East  Level Estimated
06:54PM 64.8151 -147.8564 90° East  Level Estimated
06:55PM 64.8151 -147.8564 90° East  Level Estimated
06:56PM 64.8151 -147.8564 90° East  Level Estimated
06:57PM 64.8151 -147.8564 90° East  Level Estimated
06:58PM 64.8151 -147.8564 90° East  Level Estimated
06:59PM 64.8151 -147.8564 90° East  Level Estimated
07:00PM 64.8151 -147.8564 90° East  Level Estimated
07:01PM 64.8151 -147.8564 90° East  Level Estimated
07:02PM 64.8151 -147.8564 90° East  Level Estimated